ADDS METAR Data INFO
IDs: Format: Raw Decoded Include TAF

Data at: 1328 UTC 25 Feb 2018

KPIM 251315Z AUTO 22007KT 180V260 10SM 21/19 A3010 RMK AO2 T02050193 PWINO
KPIM 251250Z AUTO 22007KT 10SM OVC008 20/19 A3009 RMK AO2 T02020192 PWINO
KPIM 251235Z AUTO 23006KT 10SM 20/19 A3009 RMK AO2 T02010192 PWINO
KPIM 251215Z AUTO 22006KT 10SM 20/19 A3008 RMK AO2 T02010191 PWINO
KPIM 251155Z AUTO 23007KT 10SM 20/19 A3008 RMK AO2 T02020191 10210 20200 PWINO
KPIM 251135Z AUTO 23004KT 10SM 20/19 A3008 RMK AO2 T02030190 PWINO
KPIM 251115Z AUTO 22006KT 10SM 21/19 A3008 RMK AO2 T02050190 PWINO
KPIM 251055Z AUTO 23007KT 10SM 21/19 A3007 RMK AO2 T02050188 PWINO
KPIM 251035Z AUTO 23004KT 10SM 21/19 A3006 RMK AO2 T02050190 PWINO
KPIM 251015Z AUTO 24005KT 10SM 20/19 A3006 RMK AO2 T02030188 PWINO
KPIM 250955Z AUTO 23008KT 10SM 20/19 A3006 RMK AO2 T02020188 PWINO
KPIM 250935Z AUTO 21006KT 10SM 20/19 A3006 RMK AO2 T02020188 PWINO
KPIM 250915Z AUTO 21007KT 10SM 20/19 A3007 RMK AO2 T02020188 PWINO
KPIM 250855Z AUTO 22007KT 10SM 20/19 A3007 RMK AO2 T02020187 PWINO
KPIM 250835Z AUTO 23007G14KT 10SM 20/19 A3007 RMK AO2 T02020186 PWINO
KPIM 250815Z AUTO 21011G16KT 10SM 20/19 A3007 RMK AO2 T02010185 PWINO
KPIM 250755Z AUTO 22007G17KT 180V240 10SM 20/19 A3007 RMK AO2 T02000185 PWINO
KPIM 250735Z AUTO 21005KT 10SM 20/18 A3008 RMK AO2 T02000183 PWINO
KPIM 250715Z AUTO 21007KT 10SM 20/18 A3008 RMK AO2 T02020180 PWINO
KPIM 250655Z AUTO 23006KT 10SM 20/18 A3009 RMK AO2 T02040177 PWINO
KPIM 250635Z AUTO 22007KT 180V260 10SM 21/17 A3010 RMK AO2 T02060171 PWINO
KPIM 250615Z AUTO 23008KT 10SM 21/17 A3010 RMK AO2 T02080165 PWINO
KPIM 250555Z AUTO 23005KT 10SM 21/16 A3009 RMK AO2 T02100161 10250 20210 PWINO
KPIM 250535Z AUTO 23007KT 180V260 10SM 21/16 A3010 RMK AO2 T02120161 PWINO
KPIM 250515Z AUTO 22007KT 200V260 10SM 22/16 A3010 RMK AO2 T02150163 PWINO
KPIM 250455Z AUTO 23006G18KT 10SM 22/17 A3010 RMK AO2 T02170165 PWINO
KPIM 250435Z AUTO 22007G14KT 190V260 10SM 22/17 A3010 RMK AO2 T02200165 PWINO
KPIM 250415Z AUTO 22008G14KT 190V250 10SM 22/16 A3010 RMK AO2 T02200162 PWINO
KPIM 250355Z AUTO 22006G19KT 10SM 22/16 A3009 RMK AO2 T02210163 402810170 PWINO
KPIM 250335Z AUTO 22006KT 10SM 22/16 A3008 RMK AO2 T02220162 PWINO
KPIM 250315Z AUTO 22006KT 10SM 23/16 A3008 RMK AO2 T02250161 PWINO
KPIM 250255Z AUTO 22008G14KT 10SM 23/16 A3008 RMK AO2 T02270161 PWINO
KPIM 250235Z AUTO 22007KT 10SM 23/16 A3008 RMK AO2 T02310160 PWINO
KPIM 250215Z AUTO 22010G16KT 10SM 24/16 A3008 RMK AO2 T02350160 PWINO
KPIM 250155Z AUTO 23006KT 10SM 24/16 A3008 RMK AO2 T02360158 PWINO
KPIM 250135Z AUTO 22005KT 10SM 24/16 A3008 RMK AO2 T02390158 PWINO
KPIM 250115Z AUTO 20003KT 10SM 24/16 A3007 RMK AO2 T02370158 PWINO
KPIM 250055Z AUTO 19003KT 10SM 24/16 A3007 RMK AO2 T02400158 PWINO
KPIM 250035Z AUTO 00000KT 10SM 25/16 A3007 RMK AO2 T02450158 PWINO
KPIM 250015Z AUTO 23004KT 10SM 25/16 A3006 RMK AO2 T02480157 PWINO
KPIM 242355Z AUTO 22003KT 10SM 25/16 A3006 RMK AO2 T02500157 10281 20250 PWINO
KPIM 242335Z AUTO 00000KT 10SM 25/16 A3005 RMK AO2 T02530157 PWINO
KPIM 242315Z AUTO 21003KT 10SM 26/16 A3005 RMK AO2 T02560157 PWINO
KPIM 242255Z AUTO 22006KT 10SM 26/16 A3005 RMK AO2 T02590157 PWINO
KPIM 242235Z AUTO 22007KT 200V260 10SM 26/16 A3006 RMK AO2 T02630157 PWINO
KPIM 242215Z AUTO 22008KT 190V250 10SM 26/16 A3006 RMK AO2 T02620157 PWINO
KPIM 242155Z AUTO 22007KT 10SM 27/16 A3006 RMK AO2 T02650157 PWINO
KPIM 242135Z AUTO 20006G14KT 10SM 27/16 A3006 RMK AO2 T02670157 PWINO
KPIM 242115Z AUTO 20008KT 10SM 27/16 A3006 RMK AO2 T02670157 PWINO
KPIM 242055Z AUTO 20005KT 10SM 27/16 A3007 RMK AO2 T02680156 PWINO
KPIM 242035Z AUTO 22011G15KT 10SM 28/15 A3008 RMK AO2 T02770154 PWINO
KPIM 242015Z AUTO 23010G15KT 10SM 27/15 A3009 RMK AO2 T02700154 PWINO
KPIM 241955Z AUTO 24011G18KT 10SM 28/16 A3008 RMK AO2 T02790156 PWINO
KPIM 241935Z AUTO 24010G17KT 190V260 10SM 27/16 A3009 RMK AO2 T02690156 PWINO
KPIM 241915Z AUTO 22008G15KT 190V260 10SM 27/16 A3011 RMK AO2 T02720159 PWINO
KPIM 241855Z AUTO 23009KT 10SM 27/16 A3012 RMK AO2 T02670161 PWINO
KPIM 241835Z AUTO 21012G21KT 10SM 27/16 A3014 RMK AO2 T02690162 PWINO
KPIM 241815Z AUTO 24014G20KT 10SM 27/17 A3015 RMK AO2 T02670165 PWINO
KPIM 241755Z AUTO 21009KT 180V250 10SM 26/17 A3017 RMK AO2 T02580168 10258 20171 PWINO
KPIM 241735Z AUTO 22009G16KT 10SM 25/17 A3018 RMK AO2 T02500169 PWINO
KPIM 241715Z AUTO 21010G17KT 10SM 25/17 A3020 RMK AO2 T02470170 PWINO
KPIM 241655Z AUTO 24007KT 10SM 25/17 A3021 RMK AO2 T02500171 PWINO
KPIM 241635Z AUTO 21008G17KT 160V240 10SM 25/17 A3021 RMK AO2 T02470171 PWINO
KPIM 241615Z AUTO 22010G17KT 10SM 24/17 A3022 RMK AO2 T02400167 PWINO
KPIM 241555Z AUTO 21007G15KT 190V260 10SM 24/17 A3022 RMK AO2 T02360169 PWINO
KPIM 241535Z AUTO 22007KT 10SM 23/17 A3022 RMK AO2 T02280169 PWINO
KPIM 241515Z AUTO 23005KT 10SM 22/17 A3023 RMK AO2 T02150172 PWINO
KPIM 241455Z AUTO 23004KT 10SM 21/17 A3023 RMK AO2 T02090171 PWINO
KPIM 241435Z AUTO 22003KT 10SM 21/17 A3023 RMK AO2 T02070170 PWINO
KPIM 241415Z AUTO 20005KT 10SM 21/17 A3023 RMK AO2 T02050171 PWINO
KPIM 241355Z AUTO 20006KT 10SM 20/17 A3023 RMK AO2 T01950170 PWINO
KPIM 241335Z AUTO 22004KT 10SM 20/17 A3023 RMK AO2 T01970172 PWINO
KPIM 241315Z AUTO 20003KT 10SM 19/17 A3022 RMK AO2 T01890174 PWINO
KPIM 241255Z AUTO 16003KT 10SM 18/17 A3022 RMK AO2 T01810172 PWINO
KPIM 241235Z AUTO 00000KT 10SM SCT110 18/17 A3021 RMK AO2 T01750171 PWINO
KPIM 241215Z AUTO 00000KT 10SM CLR 18/17 A3020 RMK AO2 T01750170 PWINO
KPIM 241155Z AUTO 16004KT 10SM CLR 17/17 A3020 RMK AO2 T01710168 10213 20170 PWINO
KPIM 241135Z AUTO 17003KT 10SM CLR 18/17 A3020 RMK AO2 T01750168 PWINO
KPIM 241115Z AUTO 17004KT 10SM CLR 17/17 A3021 RMK AO2 T01710165 PWINO
KPIM 241055Z AUTO 18003KT 10SM CLR 17/17 A3021 RMK AO2 T01730165 PWINO
KPIM 241035Z AUTO 00000KT 10SM CLR 18/17 A3021 RMK AO2 T01810167 PWINO
KPIM 241015Z AUTO 18003KT 10SM CLR 18/17 A3021 RMK AO2 T01810166 PWINO
KPIM 240955Z AUTO 16003KT 10SM CLR 17/16 A3021 RMK AO2 T01700163 PWINO
KPIM 240935Z AUTO 18003KT 10SM CLR 18/16 A3021 RMK AO2 T01750163 PWINO
KPIM 240915Z AUTO 00000KT 10SM SCT065 18/17 A3021 RMK AO2 T01840167 PWINO
KPIM 240855Z AUTO 00000KT 10SM BKN065 19/17 A3020 RMK AO2 T01870167 PWINO
KPIM 240835Z AUTO 00000KT 10SM OVC065 19/17 A3021 RMK AO2 T01850167 PWINO
KPIM 240815Z AUTO 16003KT 10SM OVC065 18/17 A3021 RMK AO2 T01790165 PWINO
KPIM 240755Z AUTO 00000KT 10SM BKN065 18/17 A3022 RMK AO2 T01830165 PWINO
KPIM 240735Z AUTO 00000KT 10SM CLR 18/16 A3022 RMK AO2 T01840164 PWINO
KPIM 240715Z AUTO 00000KT 10SM TS CLR 19/17 A3023 RMK AO2 T01920165
KPIM 240655Z AUTO 00000KT 10SM SCT065 SCT080 20/17 A3023 RMK AO2 T02040165 PWINO
KPIM 240635Z AUTO 00000KT 10SM SCT070 SCT080 BKN100 21/17 A3025 RMK AO2 T02090165 PWINO
KPIM 240615Z AUTO 19004KT 10SM BKN075 OVC100 21/17 A3025 RMK AO2 T02120165 PWINO
KPIM 240555Z AUTO 20003KT 10SM BKN075 OVC100 21/16 A3025 RMK AO2 T02110162 10229 20211 PWINO
KPIM 240535Z AUTO 19004KT 10SM BKN080 BKN090 21/16 A3025 RMK AO2 T02130161 PWINO
KPIM 240515Z AUTO 19003KT 10SM SCT065 BKN080 OVC090 22/16 A3025 RMK AO2 T02160160 PWINO
KPIM 240455Z AUTO 19004KT 10SM SCT046 BKN055 OVC080 22/16 A3025 RMK AO2 T02230160 PWINO
KPIM 240435Z AUTO 17007KT 140V200 10SM SCT055 BKN070 OVC080 23/16 A3025 RMK AO2 T02260160 PWINO
KPIM 240415Z AUTO 16006KT 10SM SCT049 OVC070 23/16 A3026 RMK AO2 T02280159 PWINO
KPIM 240355Z AUTO 16005KT 10SM BKN080 BKN110 23/16 A3026 RMK AO2 T02250160 402790156 PWINO
KPIM 240335Z AUTO 15006KT 10SM SCT110 22/16 A3026 RMK AO2 T02210160 PWINO
KPIM 240310Z AUTO 16006KT 10SM SCT055 22/16 A3027 RMK AO2 T02210161 PWINO
KPIM 240255Z AUTO 16005KT 10SM SCT055 22/16 A3027 RMK AO2 T02220162 PWINO
KPIM 240235Z AUTO 16005KT 10SM CLR 22/16 A3027 RMK AO2 LTG DSNT NW T02240163 PWINO
KPIM 240215Z AUTO 14005KT 10SM SCT080 23/16 A3027 RMK AO2 T02270163 PWINO
KPIM 240155Z AUTO 15005KT 10SM SCT050 SCT065 BKN080 23/16 A3027 RMK AO2 T02270164 PWINO
KPIM 240135Z AUTO 15005KT 10SM BKN050 23/17 A3028 RMK AO2 T02260165 PWINO